createdAt,value
2022-11-02T00:02:11.060Z,19.90
2022-11-02T00:04:37.768Z,18.73
2022-11-02T00:07:04.441Z,19.42
2022-11-02T00:09:31.082Z,18.98
2022-11-02T00:11:57.837Z,20.23
2022-11-02T00:14:25.219Z,18.67
2022-11-02T00:16:52.138Z,18.65
2022-11-02T00:19:18.854Z,20.60
2022-11-02T00:21:45.875Z,19.65
2022-11-02T00:24:13.114Z,19.10
2022-11-02T00:26:39.752Z,19.75
2022-11-02T00:29:07.203Z,18.27
2022-11-02T00:31:33.858Z,19.13
2022-11-02T00:34:00.571Z,18.63
2022-11-02T00:36:28.311Z,20.08
2022-11-02T00:38:54.982Z,18.48
2022-11-02T00:41:22.100Z,20.77
2022-11-02T00:43:48.847Z,19.42
2022-11-02T00:46:15.550Z,19.13
2022-11-02T00:48:42.384Z,17.50
2022-11-02T00:51:09.066Z,18.75
2022-11-02T00:53:35.721Z,19.77
2022-11-02T00:56:02.354Z,19.20
2022-11-02T00:58:29.029Z,17.20
2022-11-02T01:00:56.546Z,18.05
2022-11-02T01:03:23.547Z,17.65
2022-11-02T01:05:50.319Z,20.45
2022-11-02T01:08:16.956Z,18.30
2022-11-02T01:10:47.240Z,17.83
2022-11-02T01:15:41.638Z,16.23
2022-11-02T01:18:08.436Z,18.30
2022-11-02T01:20:35.361Z,18.38
2022-11-02T01:23:02.027Z,18.20
2022-11-02T01:25:28.698Z,17.95
2022-11-02T01:27:55.374Z,19.08
2022-11-02T01:30:22.448Z,17.35
2022-11-02T01:32:49.090Z,19.77
2022-11-02T01:35:16.770Z,17.52
2022-11-02T01:37:43.532Z,19.30
2022-11-02T01:40:10.738Z,16.88
2022-11-02T01:42:37.401Z,17.20
2022-11-02T01:45:04.343Z,18.95
2022-11-02T01:47:39.091Z,17.73
2022-11-02T01:50:13.082Z,17.65
2022-11-02T01:52:41.337Z,17.63
2022-11-02T01:55:08.177Z,19.35
2022-11-02T01:57:37.762Z,18.73
2022-11-02T02:00:13.764Z,18.75
2022-11-02T02:02:49.153Z,20.65
2022-11-02T02:05:17.681Z,18.70
2022-11-02T02:07:45.118Z,19.38
2022-11-02T02:10:12.112Z,17.85
2022-11-02T02:12:41.178Z,20.67
2022-11-02T02:15:09.022Z,18.95
2022-11-02T02:17:58.066Z,18.00
2022-11-02T02:20:49.723Z,18.27
2022-11-02T02:25:52.123Z,17.55
2022-11-02T02:28:37.095Z,18.08
2022-11-02T02:31:25.409Z,18.50
2022-11-02T02:34:46.320Z,17.13
2022-11-02T02:37:34.185Z,17.10
2022-11-02T02:40:09.215Z,18.25
2022-11-02T02:42:45.668Z,18.58
2022-11-02T02:45:36.456Z,17.90
2022-11-02T02:48:17.766Z,17.57
2022-11-02T02:50:49.506Z,18.55
2022-11-02T02:53:20.837Z,18.33
2022-11-02T02:55:49.853Z,17.83
2022-11-02T02:58:25.582Z,17.88
2022-11-02T03:00:53.199Z,17.58
2022-11-02T03:03:23.733Z,17.13
2022-11-02T03:06:01.005Z,17.30
2022-11-02T03:08:27.741Z,16.90
2022-11-02T03:11:09.192Z,18.52
2022-11-02T03:14:06.269Z,17.73
2022-11-02T03:17:04.894Z,18.33
2022-11-02T03:19:40.175Z,16.95
2022-11-02T03:22:20.384Z,18.83
2022-11-02T03:24:55.121Z,17.13
2022-11-02T03:27:42.029Z,16.85
2022-11-02T03:30:13.499Z,18.33
2022-11-02T03:35:32.974Z,16.00
2022-11-02T03:38:08.362Z,17.67
2022-11-02T03:40:45.242Z,16.70
2022-11-02T03:43:14.255Z,16.85
2022-11-02T03:45:48.866Z,18.25
2022-11-02T03:48:17.836Z,17.17
2022-11-02T03:50:51.087Z,17.90
2022-11-02T03:53:41.257Z,17.35
2022-11-02T03:56:15.688Z,17.15
2022-11-02T03:58:42.425Z,17.15
2022-11-02T04:01:09.978Z,17.15
2022-11-02T04:03:41.825Z,16.58
2022-11-02T04:06:08.880Z,16.60
2022-11-02T04:08:44.656Z,16.45
2022-11-02T04:11:30.340Z,17.67
2022-11-02T04:14:15.922Z,15.93
2022-11-02T04:16:43.012Z,16.00
2022-11-02T04:19:29.356Z,15.93
2022-11-02T04:22:15.636Z,16.90
2022-11-02T04:25:00.992Z,16.63
2022-11-02T04:27:27.695Z,16.45
2022-11-02T04:29:54.448Z,15.52
2022-11-02T04:32:39.990Z,16.15
2022-11-02T04:35:07.473Z,16.30
2022-11-02T04:38:02.496Z,16.48
2022-11-02T04:40:29.609Z,17.00
2022-11-02T04:42:56.330Z,16.52
2022-11-02T04:45:22.982Z,16.13
2022-11-02T04:47:49.677Z,16.45
2022-11-02T04:50:16.458Z,16.15
2022-11-02T04:52:43.126Z,18.65
2022-11-02T04:55:10.222Z,16.75
2022-11-02T04:57:36.950Z,17.05
2022-11-02T05:00:04.222Z,17.55
2022-11-02T05:02:30.944Z,16.77
2022-11-02T05:04:57.714Z,19.92
2022-11-02T05:07:24.368Z,17.58
2022-11-02T05:09:51.111Z,17.30
2022-11-02T05:12:17.794Z,17.10
2022-11-02T05:14:44.444Z,17.13
2022-11-02T05:17:13.291Z,19.50
2022-11-02T05:19:40.114Z,16.63
2022-11-02T05:22:06.753Z,17.45
2022-11-02T05:24:33.505Z,19.27
2022-11-02T05:27:03.014Z,18.88
2022-11-02T05:29:29.806Z,18.40
2022-11-02T05:31:57.592Z,18.42
2022-11-02T05:34:24.232Z,18.88
2022-11-02T05:36:50.841Z,19.33
2022-11-02T05:39:17.543Z,18.13
2022-11-02T05:41:44.173Z,17.20
2022-11-02T05:44:10.801Z,20.90
2022-11-02T05:46:37.591Z,17.88
2022-11-02T05:49:04.270Z,18.48
2022-11-02T05:51:30.959Z,19.80
2022-11-02T05:53:57.592Z,20.48
2022-11-02T05:56:25.340Z,21.05
2022-11-02T05:58:54.445Z,19.30
2022-11-02T06:01:21.576Z,20.90
2022-11-02T06:03:53.217Z,20.58
2022-11-02T06:06:20.764Z,21.10
2022-11-02T06:08:48.609Z,20.42
2022-11-02T06:11:15.593Z,20.05
2022-11-02T06:13:42.550Z,19.95
2022-11-02T06:16:11.326Z,21.55
2022-11-02T06:18:39.155Z,20.88
2022-11-02T06:21:06.639Z,20.95
2022-11-02T06:23:33.774Z,22.90
2022-11-02T06:26:01.660Z,20.73
2022-11-02T06:28:29.004Z,19.48
2022-11-02T06:30:55.732Z,20.92
2022-11-02T06:33:22.444Z,21.83
2022-11-02T06:35:51.978Z,23.42
2022-11-02T06:38:19.053Z,22.85
2022-11-02T06:40:57.261Z,22.70
2022-11-02T06:43:25.026Z,21.13
2022-11-02T06:45:56.174Z,22.20
2022-11-02T06:48:23.301Z,23.13
2022-11-02T06:50:50.025Z,22.60
2022-11-02T06:53:16.941Z,20.70
2022-11-02T06:55:44.057Z,19.83
2022-11-02T06:58:10.958Z,22.67
2022-11-02T07:00:37.714Z,20.95
2022-11-02T07:03:10.162Z,21.77
2022-11-02T07:05:37.434Z,21.60
2022-11-02T07:08:04.462Z,19.70
2022-11-02T07:10:31.974Z,22.67
2022-11-02T07:12:58.668Z,24.13
2022-11-02T07:15:27.115Z,23.23
2022-11-02T07:17:54.202Z,23.00
2022-11-02T07:20:21.164Z,22.27
2022-11-02T07:22:56.859Z,24.10
2022-11-02T07:25:24.945Z,21.92
2022-11-02T07:27:51.675Z,23.40
2022-11-02T07:30:18.868Z,27.42
2022-11-02T07:32:46.458Z,22.60
2022-11-02T07:35:15.106Z,21.77
2022-11-02T07:37:42.294Z,21.00
2022-11-02T07:40:10.799Z,22.30
2022-11-02T07:42:44.392Z,23.27
2022-11-02T07:45:11.604Z,23.00
2022-11-02T07:47:48.166Z,23.48
2022-11-02T07:50:16.810Z,22.73
2022-11-02T07:52:46.938Z,21.63
2022-11-02T07:55:15.114Z,25.55
2022-11-02T07:57:43.586Z,22.90
2022-11-02T08:00:11.857Z,22.67
2022-11-02T08:02:39.305Z,26.08
2022-11-02T08:05:06.452Z,24.25
2022-11-02T08:07:33.164Z,24.75
2022-11-02T08:09:59.854Z,22.15
2022-11-02T08:12:27.232Z,22.98
2022-11-02T08:14:53.946Z,19.88
2022-11-02T08:17:21.686Z,20.48
2022-11-02T08:19:48.418Z,19.83
2022-11-02T08:22:15.213Z,20.33
2022-11-02T08:24:41.890Z,19.00
2022-11-02T08:27:08.585Z,19.33
2022-11-02T08:29:36.799Z,18.38
2022-11-02T08:32:03.530Z,21.27
2022-11-02T08:34:30.191Z,19.45
2022-11-02T08:36:57.138Z,21.15
2022-11-02T08:39:23.815Z,19.05
2022-11-02T08:41:50.471Z,20.45
2022-11-02T08:44:17.184Z,17.55
2022-11-02T08:46:43.951Z,18.38
2022-11-02T08:49:10.602Z,17.77
2022-11-02T08:51:37.251Z,19.25
2022-11-02T08:54:04.059Z,18.00
2022-11-02T08:56:30.750Z,16.65
2022-11-02T08:58:57.421Z,16.95
2022-11-02T09:01:24.277Z,17.52
2022-11-02T09:03:51.022Z,16.95
2022-11-02T09:06:17.692Z,21.45
2022-11-02T09:08:44.396Z,16.55
2022-11-02T09:11:11.239Z,17.00
2022-11-02T09:13:38.968Z,16.42
2022-11-02T09:16:06.039Z,17.80
2022-11-02T09:18:32.747Z,15.77
2022-11-02T09:21:04.324Z,15.13
2022-11-02T09:23:31.294Z,16.88
2022-11-02T09:25:58.957Z,16.13
2022-11-02T09:28:25.763Z,14.20
2022-11-02T09:30:52.532Z,13.73
2022-11-02T09:33:19.382Z,15.02
2022-11-02T09:35:48.499Z,14.68
2022-11-02T09:38:16.346Z,12.77
2022-11-02T09:40:59.120Z,14.07
2022-11-02T09:43:47.119Z,13.73
2022-11-02T09:46:28.171Z,14.77
2022-11-02T09:49:03.443Z,14.38
2022-11-02T09:51:36.577Z,15.70
2022-11-02T09:54:22.120Z,14.63
2022-11-02T09:56:50.861Z,14.25
2022-11-02T09:59:22.825Z,12.05
2022-11-02T10:02:27.150Z,13.13
2022-11-02T10:05:08.434Z,12.27
2022-11-02T10:07:53.119Z,12.07
2022-11-02T10:10:56.723Z,11.32
2022-11-02T10:13:33.811Z,13.25
2022-11-02T10:16:23.599Z,13.15
2022-11-02T10:18:53.594Z,14.55
2022-11-02T10:21:31.348Z,13.35
2022-11-02T10:24:00.850Z,13.60
2022-11-02T10:26:33.959Z,13.07
2022-11-02T10:29:15.643Z,14.60
2022-11-02T10:31:43.241Z,16.58
2022-11-02T10:34:25.895Z,18.58
2022-11-02T10:37:30.351Z,20.58
2022-11-02T10:40:15.841Z,17.85
2022-11-02T10:43:17.013Z,15.40
2022-11-02T10:46:02.175Z,15.98
2022-11-02T10:48:50.711Z,16.25
2022-11-02T10:51:17.874Z,13.80
2022-11-02T10:53:53.143Z,14.00
2022-11-02T10:56:32.707Z,13.60
2022-11-02T10:58:59.459Z,13.82
2022-11-02T11:01:27.650Z,11.60
2022-11-02T11:03:57.615Z,11.27
2022-11-02T11:06:34.337Z,12.15
2022-11-02T11:09:07.470Z,12.85
2022-11-02T11:11:37.343Z,13.55
2022-11-02T11:20:36.456Z,9.57
2022-11-02T11:23:24.316Z,9.65
2022-11-02T11:25:58.328Z,9.23
2022-11-02T11:28:48.596Z,11.57
2022-11-02T11:31:17.890Z,11.10
2022-11-02T11:33:51.647Z,9.60
2022-11-02T11:36:30.728Z,8.43
2022-11-02T11:39:04.756Z,9.55
2022-11-02T11:41:32.998Z,9.85
2022-11-02T11:44:01.326Z,8.75
2022-11-02T11:46:48.670Z,8.05
2022-11-02T11:49:47.902Z,8.98
2022-11-02T11:52:27.051Z,8.55
2022-11-02T11:55:18.872Z,9.77
2022-11-02T11:57:45.720Z,9.07
2022-11-02T12:00:27.562Z,8.27
2022-11-02T12:03:10.987Z,13.05
2022-11-02T12:05:50.636Z,9.45
2022-11-02T12:08:36.749Z,13.10
2022-11-02T12:11:09.511Z,7.38
2022-11-02T12:14:04.992Z,7.47
2022-11-02T12:16:52.634Z,7.85
2022-11-02T12:19:39.818Z,7.25
2022-11-02T12:22:19.669Z,7.95
2022-11-02T12:25:16.356Z,9.50
2022-11-02T12:28:06.425Z,7.03
2022-11-02T12:30:39.013Z,7.15
2022-11-02T12:33:22.464Z,6.55
2022-11-02T12:36:12.559Z,6.30
2022-11-02T12:39:03.757Z,6.57
2022-11-02T12:41:45.437Z,5.93
2022-11-02T12:44:43.043Z,6.50
2022-11-02T12:47:25.758Z,5.80
2022-11-02T12:50:10.883Z,5.28
2022-11-02T12:53:02.525Z,5.40
2022-11-02T12:55:38.740Z,5.32
2022-11-02T12:58:10.908Z,5.68
2022-11-02T13:00:42.688Z,5.68
2022-11-02T13:03:19.486Z,5.15
2022-11-02T13:05:51.193Z,4.60
2022-11-02T13:08:22.388Z,5.28
2022-11-02T13:10:53.876Z,4.45
2022-11-02T13:13:49.572Z,4.72
2022-11-02T13:16:18.602Z,5.32
2022-11-02T13:18:50.163Z,4.63
2022-11-02T13:21:30.008Z,4.93
2022-11-02T13:24:00.267Z,5.03
2022-11-02T13:26:41.435Z,6.60
2022-11-02T13:29:26.817Z,5.40
2022-11-02T13:32:03.197Z,4.55
2022-11-02T13:34:38.342Z,4.53
2022-11-02T13:37:15.815Z,4.63
2022-11-02T13:39:47.877Z,4.35
2022-11-02T13:42:17.559Z,4.18
2022-11-02T13:45:12.680Z,4.85
2022-11-02T13:48:03.785Z,5.07
2022-11-02T13:50:32.990Z,4.80
2022-11-02T13:53:03.548Z,4.38
2022-11-02T13:55:47.837Z,4.60
2022-11-02T13:58:35.662Z,4.90
2022-11-02T14:01:06.034Z,4.57
2022-11-02T14:04:07.816Z,5.23
2022-11-02T14:06:49.433Z,5.22
2022-11-02T14:09:28.126Z,5.72
2022-11-02T14:12:17.835Z,5.20
2022-11-02T14:14:45.560Z,5.65
2022-11-02T14:17:14.216Z,5.78
2022-11-02T14:19:51.730Z,5.28
2022-11-02T14:22:18.995Z,5.05
2022-11-02T14:24:45.635Z,5.13
2022-11-02T14:27:12.341Z,6.68
2022-11-02T14:29:45.042Z,5.10
2022-11-02T14:32:20.607Z,4.88
2022-11-02T14:35:15.294Z,4.97
2022-11-02T14:37:53.915Z,5.78
2022-11-02T14:40:30.447Z,6.68
2022-11-02T14:43:36.099Z,9.10
2022-11-02T14:46:36.723Z,9.18
2022-11-02T14:49:05.247Z,8.35
2022-11-02T14:51:38.476Z,9.68
2022-11-02T14:54:18.677Z,7.45
2022-11-02T14:57:07.372Z,8.25
2022-11-02T14:59:40.446Z,9.23
2022-11-02T15:02:42.148Z,7.78
2022-11-02T15:05:24.097Z,8.43
2022-11-02T15:08:04.803Z,6.63
2022-11-02T15:10:31.440Z,7.60
2022-11-02T15:13:20.225Z,9.57
2022-11-02T15:15:56.005Z,13.35
2022-11-02T15:18:24.479Z,15.77
2022-11-02T15:21:27.092Z,12.68
2022-11-02T15:24:23.456Z,8.90
2022-11-02T15:26:59.447Z,8.40
2022-11-02T15:29:44.058Z,10.57
2022-11-02T15:32:22.279Z,10.27
2022-11-02T15:34:51.600Z,9.85
2022-11-02T15:37:50.332Z,10.60
2022-11-02T15:40:26.873Z,11.63
2022-11-02T15:43:24.619Z,12.75
2022-11-02T15:46:28.236Z,13.70
2022-11-02T15:49:09.690Z,16.20
2022-11-02T15:51:47.693Z,21.95
2022-11-02T15:54:33.631Z,23.67
2022-11-02T15:57:34.481Z,21.52
2022-11-02T16:00:14.682Z,19.70
2022-11-02T16:02:48.592Z,21.77
2022-11-02T16:05:26.904Z,22.02
2022-11-02T16:08:10.601Z,20.38
2022-11-02T16:10:37.960Z,19.23
2022-11-02T16:13:10.543Z,23.02
2022-11-02T16:15:38.139Z,18.77
2022-11-02T16:18:05.091Z,16.70
2022-11-02T16:20:35.599Z,14.05
2022-11-02T16:23:03.820Z,12.18
2022-11-02T16:25:40.425Z,11.07
2022-11-02T16:28:31.562Z,12.23
2022-11-02T16:31:04.166Z,10.77
2022-11-02T16:33:40.649Z,12.85
2022-11-02T16:36:09.852Z,11.38
2022-11-02T16:38:38.276Z,11.45
2022-11-02T16:41:09.244Z,11.93
2022-11-02T16:43:37.890Z,14.48
2022-11-02T16:46:07.318Z,14.75
2022-11-02T16:48:34.063Z,13.63
2022-11-02T16:51:18.429Z,14.00
2022-11-02T16:53:45.172Z,16.70
2022-11-02T16:56:28.591Z,16.00
2022-11-02T16:58:59.863Z,15.10
2022-11-02T17:01:30.055Z,13.93
2022-11-02T17:03:57.099Z,14.75
2022-11-02T17:06:23.954Z,13.82
2022-11-02T17:08:54.254Z,15.52
2022-11-02T17:11:22.038Z,16.25
2022-11-02T17:13:55.590Z,15.80
2022-11-02T17:16:22.427Z,18.75
2022-11-02T17:18:49.207Z,17.98
2022-11-02T17:21:27.464Z,18.38
2022-11-02T17:23:55.990Z,18.38
2022-11-02T17:26:22.766Z,19.25
2022-11-02T17:28:51.624Z,19.20
2022-11-02T17:31:19.443Z,20.60
2022-11-02T17:33:47.458Z,18.80
2022-11-02T17:36:15.306Z,19.33
2022-11-02T17:38:42.126Z,18.83
2022-11-02T17:41:37.772Z,19.52
2022-11-02T17:44:06.023Z,18.65
2022-11-02T17:46:33.189Z,17.92
2022-11-02T17:48:59.871Z,17.17
2022-11-02T17:51:26.774Z,20.23
2022-11-02T17:53:53.520Z,16.92
2022-11-02T17:56:20.250Z,16.40
2022-11-02T17:58:47.026Z,18.75
2022-11-02T18:01:14.221Z,18.58
2022-11-02T18:03:41.321Z,20.17
2022-11-02T18:06:09.278Z,20.80
2022-11-02T18:08:55.961Z,21.27
2022-11-02T18:11:26.264Z,19.10
2022-11-02T18:13:53.718Z,19.58
2022-11-02T18:16:20.486Z,19.27
2022-11-02T18:18:47.359Z,18.92
2022-11-02T18:21:14.050Z,19.02
2022-11-02T18:23:41.541Z,18.08
2022-11-02T18:26:11.538Z,21.25
2022-11-02T18:28:38.691Z,21.25
2022-11-02T18:31:08.912Z,20.23
2022-11-02T18:33:35.881Z,15.68
2022-11-02T18:36:07.728Z,15.95
2022-11-02T18:38:35.063Z,12.73
2022-11-02T18:41:26.237Z,12.43
2022-11-02T18:43:57.976Z,11.70
2022-11-02T18:46:30.700Z,10.05
2022-11-02T18:48:57.998Z,10.55
2022-11-02T18:51:24.949Z,10.38
2022-11-02T18:54:01.209Z,9.98
2022-11-02T18:56:28.310Z,12.07
2022-11-02T18:58:55.821Z,11.18
2022-11-02T19:01:24.395Z,13.63
2022-11-02T19:03:53.062Z,13.02
2022-11-02T19:06:39.289Z,15.02
2022-11-02T19:09:19.435Z,14.80
2022-11-02T19:12:01.040Z,15.65
2022-11-02T19:14:30.369Z,15.50
2022-11-02T19:16:57.070Z,17.63
2022-11-02T19:19:24.824Z,15.98
2022-11-02T19:21:51.735Z,14.77
2022-11-02T19:24:21.146Z,15.15
2022-11-02T19:26:48.398Z,14.13
2022-11-02T19:29:16.930Z,11.40
2022-11-02T19:31:44.715Z,12.85
2022-11-02T19:34:12.415Z,10.07
2022-11-02T19:36:39.723Z,10.82
2022-11-02T19:39:10.025Z,12.88
2022-11-02T19:41:38.738Z,12.68
2022-11-02T19:44:06.811Z,14.38
2022-11-02T19:46:34.915Z,13.77
2022-11-02T19:49:02.219Z,15.63
2022-11-02T19:51:31.578Z,11.95
2022-11-02T19:54:01.696Z,12.93
2022-11-02T19:56:31.556Z,11.93
2022-11-02T19:58:59.225Z,13.65
2022-11-02T20:01:27.769Z,10.77
2022-11-02T20:03:55.952Z,11.45
2022-11-02T20:06:26.275Z,11.48
2022-11-02T20:08:56.291Z,11.95
2022-11-02T20:11:25.003Z,9.65
2022-11-02T20:13:52.510Z,10.20
2022-11-02T20:16:21.011Z,8.15
2022-11-02T20:18:50.829Z,6.65
2022-11-02T20:21:31.611Z,6.90
2022-11-02T20:24:01.440Z,7.00
2022-11-02T20:26:34.138Z,7.75
2022-11-02T20:29:03.197Z,8.23
2022-11-02T20:31:33.128Z,7.53
2022-11-02T20:34:01.562Z,7.22
2022-11-02T20:36:29.447Z,7.70
2022-11-02T20:38:57.871Z,8.05
2022-11-02T20:41:26.404Z,8.45
2022-11-02T20:43:57.801Z,8.75
2022-11-02T20:46:46.307Z,7.75
2022-11-02T20:49:22.081Z,8.07
2022-11-02T20:51:57.610Z,10.30
2022-11-02T20:54:25.592Z,8.25
2022-11-02T20:56:52.777Z,8.77
2022-11-02T20:59:20.066Z,8.75
2022-11-02T21:01:47.632Z,11.68
2022-11-02T21:04:20.868Z,8.35
2022-11-02T21:06:50.166Z,8.90
2022-11-02T21:09:18.352Z,9.27
2022-11-02T21:12:04.449Z,8.50
2022-11-02T21:14:31.985Z,10.27
2022-11-02T21:16:59.307Z,9.35
2022-11-02T21:19:26.598Z,8.75
2022-11-02T21:21:59.416Z,9.80
2022-11-02T21:24:27.968Z,10.00
2022-11-02T21:26:55.417Z,10.18
2022-11-02T21:29:23.168Z,9.10
2022-11-02T21:31:50.935Z,9.20
2022-11-02T21:34:18.328Z,10.48
2022-11-02T21:36:47.215Z,10.77
2022-11-02T21:39:14.571Z,11.77
2022-11-02T21:41:41.941Z,10.90
2022-11-02T21:44:09.287Z,11.85
2022-11-02T21:46:36.828Z,11.93
2022-11-02T21:49:04.277Z,11.68
2022-11-02T21:51:31.688Z,11.50
2022-11-02T21:53:58.922Z,11.80
2022-11-02T21:56:28.044Z,11.80
2022-11-02T21:58:56.291Z,12.48
2022-11-02T22:01:45.160Z,12.48
2022-11-02T22:04:25.452Z,14.10
2022-11-02T22:06:53.445Z,12.23
2022-11-02T22:09:21.342Z,12.25
2022-11-02T22:12:08.869Z,12.82
2022-11-02T22:14:37.105Z,13.68
2022-11-02T22:17:16.069Z,13.18
2022-11-02T22:19:44.200Z,14.38
2022-11-02T22:22:11.416Z,13.68
2022-11-02T22:24:44.410Z,13.45
2022-11-02T22:27:12.421Z,14.93
2022-11-02T22:29:39.747Z,15.38
2022-11-02T22:32:07.176Z,16.67
2022-11-02T22:34:34.438Z,15.82
2022-11-02T22:37:21.706Z,15.43
2022-11-02T22:39:48.947Z,14.45
2022-11-02T22:42:16.168Z,14.45
2022-11-02T22:44:43.525Z,16.02
2022-11-02T22:47:10.760Z,14.73
2022-11-02T22:49:38.184Z,14.00
2022-11-02T22:52:05.563Z,13.15
2022-11-02T22:54:33.061Z,16.38
2022-11-02T22:57:00.212Z,15.52
2022-11-02T22:59:27.605Z,16.83
2022-11-02T23:01:56.440Z,16.63
2022-11-02T23:04:23.125Z,15.90
2022-11-02T23:06:49.761Z,14.45
2022-11-02T23:09:16.470Z,15.65
2022-11-02T23:11:43.883Z,14.13
2022-11-02T23:14:13.272Z,16.65
2022-11-02T23:16:42.480Z,17.08
2022-11-02T23:19:29.679Z,25.17
2022-11-02T23:22:45.204Z,15.95
2022-11-02T23:25:12.324Z,16.58
2022-11-02T23:28:17.411Z,14.60
2022-11-02T23:31:03.269Z,16.40
2022-11-02T23:33:32.266Z,15.32
2022-11-02T23:36:12.404Z,13.55
2022-11-02T23:39:02.641Z,11.50
2022-11-02T23:41:31.224Z,13.15
2022-11-02T23:44:14.497Z,12.23
2022-11-02T23:46:43.330Z,12.63
2022-11-02T23:49:10.577Z,11.05
2022-11-02T23:51:56.160Z,10.10
2022-11-02T23:54:41.492Z,11.57
2022-11-02T23:57:08.286Z,14.60
2022-11-02T23:59:41.274Z,10.63
